KAPN/APN METAR and TAF weather

Enter ICAO airport designator
Station Type Date Time Source
KAPN METAR 2020/01/22 11:54 UTC NOAA

KAPN 221154Z 20008KT 10SM CLR M04/M07 A3012 RMK AO2 SLP209 T10441072 11028 21050 56017


Station Type Date Time Source
KAPN Decoded METAR 2020/01/22 11:54 UTC NOAA

ALPENA COUNTY REGIONAL AIRPORT, MI, United States (KAPN) 45-05N 083-34W 210M
Jan 22, 2020 - 06:54 AM EST / 2020.01.22 1154 UTC
Wind: from the SSW (200 degrees) at 9 MPH (8 KT):0
Visibility: 10 mile(s):0
Sky conditions: clear
Temperature: 24.1 F (-4.4 C)
Windchill: 14 F (-10 C):1
Dew Point: 19.0 F (-7.2 C)
Relative Humidity: 80%
Pressure (altimeter): 30.12 in. Hg (1019 hPa)
Pressure tendency: 0.05 inches (1.7 hPa) lower than three hours ago
ob: KAPN 221154Z 20008KT 10SM CLR M04/M07 A3012 RMK AO2 SLP209 T10441072 11028 21050 56017
cycle: 12

Station Type Date Time Source
KAPN TAF 2020/01/22 12:27 UTC NOAA

TAF KAPN 221124Z 2212/2312 20009KT P6SM FEW200 WS020/24040KT
FM221600 22008KT P6SM SCT200
FM230400 21005KT P6SM BKN100
FM230700 VRB03KT P6SM BKN090

Example: see airport list